sensor_id;sensor_type;location;lat;lon;timestamp;P1;durP1;ratioP1;P2;durP2;ratioP2
30010;SDS011;16851;53.564;8.112;2022-11-20T00:04:53;12.10;;;7.40;;
30010;SDS011;16851;53.564;8.112;2022-11-20T00:09:54;12.50;;;7.60;;
30010;SDS011;16851;53.564;8.112;2022-11-20T00:15:02;10.53;;;6.20;;
30010;SDS011;16851;53.564;8.112;2022-11-20T00:20:10;11.80;;;6.43;;
30010;SDS011;16851;53.564;8.112;2022-11-20T00:25:18;9.23;;;6.23;;
30010;SDS011;16851;53.564;8.112;2022-11-20T00:30:22;8.63;;;5.53;;
30010;SDS011;16851;53.564;8.112;2022-11-20T00:35:24;7.80;;;5.20;;
30010;SDS011;16851;53.564;8.112;2022-11-20T00:40:25;7.37;;;4.03;;
30010;SDS011;16851;53.564;8.112;2022-11-20T00:45:27;8.00;;;4.27;;
30010;SDS011;16851;53.564;8.112;2022-11-20T00:50:31;8.03;;;4.97;;
30010;SDS011;16851;53.564;8.112;2022-11-20T00:55:35;7.37;;;5.40;;
30010;SDS011;16851;53.564;8.112;2022-11-20T01:00:39;8.13;;;6.03;;
30010;SDS011;16851;53.564;8.112;2022-11-20T01:05:43;9.30;;;7.00;;
30010;SDS011;16851;53.564;8.112;2022-11-20T01:10:49;13.53;;;8.10;;
30010;SDS011;16851;53.564;8.112;2022-11-20T01:16:01;12.17;;;7.23;;
30010;SDS011;16851;53.564;8.112;2022-11-20T01:21:23;11.63;;;7.07;;
30010;SDS011;16851;53.564;8.112;2022-11-20T01:26:28;11.83;;;7.73;;
30010;SDS011;16851;53.564;8.112;2022-11-20T01:31:36;12.37;;;8.23;;
30010;SDS011;16851;53.564;8.112;2022-11-20T01:36:38;12.07;;;7.37;;
30010;SDS011;16851;53.564;8.112;2022-11-20T01:41:41;13.37;;;8.87;;
30010;SDS011;16851;53.564;8.112;2022-11-20T01:47:08;11.53;;;8.53;;
30010;SDS011;16851;53.564;8.112;2022-11-20T01:52:17;13.27;;;8.43;;
30010;SDS011;16851;53.564;8.112;2022-11-20T01:57:27;11.33;;;8.30;;
30010;SDS011;16851;53.564;8.112;2022-11-20T02:02:36;13.20;;;8.53;;
30010;SDS011;16851;53.564;8.112;2022-11-20T02:07:51;12.83;;;9.23;;
30010;SDS011;16851;53.564;8.112;2022-11-20T02:12:56;12.63;;;8.80;;
30010;SDS011;16851;53.564;8.112;2022-11-20T02:18:19;14.50;;;9.20;;
30010;SDS011;16851;53.564;8.112;2022-11-20T02:23:29;12.13;;;9.23;;
30010;SDS011;16851;53.564;8.112;2022-11-20T02:28:36;14.10;;;10.20;;
30010;SDS011;16851;53.564;8.112;2022-11-20T02:33:41;13.73;;;10.40;;
30010;SDS011;16851;53.564;8.112;2022-11-20T02:38:45;17.93;;;11.30;;
30010;SDS011;16851;53.564;8.112;2022-11-20T02:43:48;16.37;;;11.67;;
30010;SDS011;16851;53.564;8.112;2022-11-20T02:48:50;14.17;;;11.47;;
30010;SDS011;16851;53.564;8.112;2022-11-20T02:53:52;17.30;;;12.60;;
30010;SDS011;16851;53.564;8.112;2022-11-20T02:59:01;17.13;;;11.97;;
30010;SDS011;16851;53.564;8.112;2022-11-20T03:04:05;18.27;;;11.40;;
30010;SDS011;16851;53.564;8.112;2022-11-20T03:09:07;17.60;;;12.23;;
30010;SDS011;16851;53.564;8.112;2022-11-20T03:14:09;17.03;;;12.13;;
30010;SDS011;16851;53.564;8.112;2022-11-20T03:19:12;16.90;;;12.07;;
30010;SDS011;16851;53.564;8.112;2022-11-20T03:24:14;14.87;;;10.47;;
30010;SDS011;16851;53.564;8.112;2022-11-20T03:29:18;16.13;;;10.40;;
30010;SDS011;16851;53.564;8.112;2022-11-20T03:34:23;15.13;;;10.47;;
30010;SDS011;16851;53.564;8.112;2022-11-20T03:39:24;14.80;;;10.33;;
30010;SDS011;16851;53.564;8.112;2022-11-20T03:44:29;12.47;;;9.90;;
30010;SDS011;16851;53.564;8.112;2022-11-20T03:49:31;14.80;;;10.27;;
30010;SDS011;16851;53.564;8.112;2022-11-20T03:54:35;11.70;;;8.87;;
30010;SDS011;16851;53.564;8.112;2022-11-20T03:59:36;13.03;;;9.03;;
30010;SDS011;16851;53.564;8.112;2022-11-20T04:04:41;13.57;;;9.37;;
30010;SDS011;16851;53.564;8.112;2022-11-20T04:09:44;10.67;;;8.47;;
30010;SDS011;16851;53.564;8.112;2022-11-20T04:14:46;12.53;;;9.10;;
30010;SDS011;16851;53.564;8.112;2022-11-20T04:19:50;12.93;;;9.27;;
30010;SDS011;16851;53.564;8.112;2022-11-20T04:24:52;10.97;;;7.20;;
30010;SDS011;16851;53.564;8.112;2022-11-20T04:29:53;11.27;;;7.10;;
30010;SDS011;16851;53.564;8.112;2022-11-20T04:35:04;13.07;;;6.53;;
30010;SDS011;16851;53.564;8.112;2022-11-20T04:40:08;15.17;;;6.23;;
30010;SDS011;16851;53.564;8.112;2022-11-20T04:45:10;8.53;;;6.37;;
30010;SDS011;16851;53.564;8.112;2022-11-20T04:50:16;8.07;;;5.97;;
30010;SDS011;16851;53.564;8.112;2022-11-20T04:55:21;7.77;;;6.20;;
30010;SDS011;16851;53.564;8.112;2022-11-20T05:00:23;10.13;;;6.23;;
30010;SDS011;16851;53.564;8.112;2022-11-20T05:05:25;11.87;;;7.30;;
30010;SDS011;16851;53.564;8.112;2022-11-20T05:10:29;10.07;;;6.80;;
30010;SDS011;16851;53.564;8.112;2022-11-20T05:15:36;7.87;;;6.90;;
30010;SDS011;16851;53.564;8.112;2022-11-20T05:20:40;13.00;;;7.90;;
30010;SDS011;16851;53.564;8.112;2022-11-20T05:25:44;9.90;;;7.27;;
30010;SDS011;16851;53.564;8.112;2022-11-20T05:30:50;16.37;;;8.43;;
30010;SDS011;16851;53.564;8.112;2022-11-20T05:35:52;13.10;;;8.63;;
30010;SDS011;16851;53.564;8.112;2022-11-20T05:40:54;11.63;;;9.17;;
30010;SDS011;16851;53.564;8.112;2022-11-20T05:45:55;14.67;;;8.73;;
30010;SDS011;16851;53.564;8.112;2022-11-20T05:51:00;14.63;;;9.43;;
30010;SDS011;16851;53.564;8.112;2022-11-20T05:56:09;15.73;;;10.33;;
30010;SDS011;16851;53.564;8.112;2022-11-20T06:01:19;16.97;;;9.63;;
30010;SDS011;16851;53.564;8.112;2022-11-20T06:06:22;16.20;;;10.17;;
30010;SDS011;16851;53.564;8.112;2022-11-20T06:11:26;17.93;;;11.27;;
30010;SDS011;16851;53.564;8.112;2022-11-20T06:16:32;15.53;;;10.47;;
30010;SDS011;16851;53.564;8.112;2022-11-20T06:21:36;13.17;;;9.30;;
30010;SDS011;16851;53.564;8.112;2022-11-20T06:26:37;12.10;;;9.70;;
30010;SDS011;16851;53.564;8.112;2022-11-20T06:31:44;19.07;;;11.20;;
30010;SDS011;16851;53.564;8.112;2022-11-20T06:36:49;14.90;;;10.10;;
30010;SDS011;16851;53.564;8.112;2022-11-20T06:41:51;16.77;;;11.03;;
30010;SDS011;16851;53.564;8.112;2022-11-20T06:47:00;15.30;;;9.87;;
30010;SDS011;16851;53.564;8.112;2022-11-20T06:52:04;13.50;;;10.40;;
30010;SDS011;16851;53.564;8.112;2022-11-20T06:57:11;14.73;;;11.03;;
30010;SDS011;16851;53.564;8.112;2022-11-20T07:02:15;13.70;;;10.70;;
30010;SDS011;16851;53.564;8.112;2022-11-20T07:07:16;21.43;;;11.63;;
30010;SDS011;16851;53.564;8.112;2022-11-20T07:12:18;17.73;;;12.17;;
30010;SDS011;16851;53.564;8.112;2022-11-20T07:17:20;19.77;;;11.70;;
30010;SDS011;16851;53.564;8.112;2022-11-20T07:22:22;17.10;;;11.90;;
30010;SDS011;16851;53.564;8.112;2022-11-20T07:27:27;24.93;;;14.33;;
30010;SDS011;16851;53.564;8.112;2022-11-20T07:32:33;17.13;;;11.90;;
30010;SDS011;16851;53.564;8.112;2022-11-20T07:37:35;15.47;;;10.73;;
30010;SDS011;16851;53.564;8.112;2022-11-20T07:42:37;15.27;;;10.07;;
30010;SDS011;16851;53.564;8.112;2022-11-20T07:47:39;16.00;;;9.90;;
30010;SDS011;16851;53.564;8.112;2022-11-20T07:52:43;14.77;;;8.70;;
30010;SDS011;16851;53.564;8.112;2022-11-20T07:57:53;12.60;;;9.63;;
30010;SDS011;16851;53.564;8.112;2022-11-20T08:02:58;13.20;;;9.47;;
30010;SDS011;16851;53.564;8.112;2022-11-20T08:08:04;17.63;;;11.03;;
30010;SDS011;16851;53.564;8.112;2022-11-20T08:13:08;19.07;;;13.50;;
30010;SDS011;16851;53.564;8.112;2022-11-20T08:18:29;17.30;;;12.70;;
30010;SDS011;16851;53.564;8.112;2022-11-20T08:23:33;17.13;;;12.70;;
30010;SDS011;16851;53.564;8.112;2022-11-20T08:28:37;16.87;;;11.63;;
30010;SDS011;16851;53.564;8.112;2022-11-20T08:33:44;17.23;;;11.83;;
30010;SDS011;16851;53.564;8.112;2022-11-20T08:38:50;18.27;;;13.17;;
30010;SDS011;16851;53.564;8.112;2022-11-20T08:43:59;18.43;;;12.27;;
30010;SDS011;16851;53.564;8.112;2022-11-20T08:49:05;18.03;;;11.73;;
30010;SDS011;16851;53.564;8.112;2022-11-20T08:54:07;18.10;;;11.43;;
30010;SDS011;16851;53.564;8.112;2022-11-20T08:59:11;15.40;;;11.73;;
30010;SDS011;16851;53.564;8.112;2022-11-20T09:04:35;16.43;;;12.33;;
30010;SDS011;16851;53.564;8.112;2022-11-20T09:09:37;19.63;;;13.03;;
30010;SDS011;16851;53.564;8.112;2022-11-20T09:14:45;15.73;;;11.83;;
30010;SDS011;16851;53.564;8.112;2022-11-20T09:19:57;20.33;;;13.57;;
30010;SDS011;16851;53.564;8.112;2022-11-20T09:25:05;18.60;;;13.40;;
30010;SDS011;16851;53.564;8.112;2022-11-20T09:30:09;15.57;;;12.10;;
30010;SDS011;16851;53.564;8.112;2022-11-20T09:35:11;15.00;;;11.10;;
30010;SDS011;16851;53.564;8.112;2022-11-20T09:40:19;13.80;;;10.33;;
30010;SDS011;16851;53.564;8.112;2022-11-20T09:45:48;12.97;;;10.13;;
30010;SDS011;16851;53.564;8.112;2022-11-20T09:51:12;14.67;;;10.70;;
30010;SDS011;16851;53.564;8.112;2022-11-20T09:56:26;13.60;;;9.77;;
30010;SDS011;16851;53.564;8.112;2022-11-20T10:01:30;12.17;;;9.50;;
30010;SDS011;16851;53.564;8.112;2022-11-20T10:06:37;19.47;;;11.20;;
30010;SDS011;16851;53.564;8.112;2022-11-20T10:33:32;9.87;;;7.10;;
30010;SDS011;16851;53.564;8.112;2022-11-20T10:38:59;11.73;;;7.67;;
30010;SDS011;16851;53.564;8.112;2022-11-20T10:44:10;9.00;;;6.80;;
30010;SDS011;16851;53.564;8.112;2022-11-20T10:49:18;12.53;;;7.33;;
30010;SDS011;16851;53.564;8.112;2022-11-20T11:00:03;10.10;;;6.83;;
30010;SDS011;16851;53.564;8.112;2022-11-20T11:11:15;8.37;;;6.83;;
30010;SDS011;16851;53.564;8.112;2022-11-20T11:15:54;11.33;;;6.73;;
30010;SDS011;16851;53.564;8.112;2022-11-20T11:21:02;9.33;;;6.93;;
30010;SDS011;16851;53.564;8.112;2022-11-20T11:26:23;7.17;;;5.10;;
30010;SDS011;16851;53.564;8.112;2022-11-20T11:31:27;7.13;;;3.93;;
30010;SDS011;16851;53.564;8.112;2022-11-20T11:36:35;6.67;;;4.10;;
30010;SDS011;16851;53.564;8.112;2022-11-20T11:41:40;7.00;;;5.93;;
30010;SDS011;16851;53.564;8.112;2022-11-20T11:47:00;9.27;;;6.00;;
30010;SDS011;16851;53.564;8.112;2022-11-20T11:52:16;6.80;;;5.10;;
30010;SDS011;16851;53.564;8.112;2022-11-20T12:07:47;6.53;;;4.60;;
30010;SDS011;16851;53.564;8.112;2022-11-20T12:12:58;6.43;;;4.70;;
30010;SDS011;16851;53.564;8.112;2022-11-20T12:18:07;6.57;;;4.53;;
30010;SDS011;16851;53.564;8.112;2022-11-20T12:23:18;8.50;;;6.17;;
30010;SDS011;16851;53.564;8.112;2022-11-20T12:33:49;6.60;;;5.33;;
30010;SDS011;16851;53.564;8.112;2022-11-20T12:39:34;7.33;;;5.07;;
30010;SDS011;16851;53.564;8.112;2022-11-20T12:50:12;11.33;;;6.73;;
30010;SDS011;16851;53.564;8.112;2022-11-20T13:00:37;12.03;;;8.17;;
30010;SDS011;16851;53.564;8.112;2022-11-20T13:11:43;13.17;;;8.33;;
30010;SDS011;16851;53.564;8.112;2022-11-20T13:16:41;11.67;;;8.17;;
30010;SDS011;16851;53.564;8.112;2022-11-20T13:21:51;11.60;;;8.93;;
30010;SDS011;16851;53.564;8.112;2022-11-20T13:27:00;11.53;;;8.27;;
30010;SDS011;16851;53.564;8.112;2022-11-20T13:32:11;9.97;;;7.97;;
30010;SDS011;16851;53.564;8.112;2022-11-20T13:42:39;10.67;;;7.80;;
30010;SDS011;16851;53.564;8.112;2022-11-20T13:47:50;11.73;;;8.67;;
30010;SDS011;16851;53.564;8.112;2022-11-20T13:53:02;14.17;;;10.27;;
30010;SDS011;16851;53.564;8.112;2022-11-20T13:58:34;14.23;;;10.33;;
30010;SDS011;16851;53.564;8.112;2022-11-20T14:03:56;17.27;;;10.90;;
30010;SDS011;16851;53.564;8.112;2022-11-20T14:09:10;15.17;;;11.03;;
30010;SDS011;16851;53.564;8.112;2022-11-20T14:14:29;18.77;;;13.87;;
30010;SDS011;16851;53.564;8.112;2022-11-20T14:19:33;17.07;;;12.67;;
30010;SDS011;16851;53.564;8.112;2022-11-20T14:24:35;24.70;;;16.13;;
30010;SDS011;16851;53.564;8.112;2022-11-20T14:29:39;21.27;;;13.97;;
30010;SDS011;16851;53.564;8.112;2022-11-20T14:34:43;33.93;;;21.30;;
30010;SDS011;16851;53.564;8.112;2022-11-20T14:39:52;29.77;;;20.30;;
30010;SDS011;16851;53.564;8.112;2022-11-20T14:44:55;26.13;;;19.20;;
30010;SDS011;16851;53.564;8.112;2022-11-20T14:49:58;29.57;;;20.70;;
30010;SDS011;16851;53.564;8.112;2022-11-20T14:55:13;29.73;;;18.43;;
30010;SDS011;16851;53.564;8.112;2022-11-20T15:05:24;21.50;;;14.93;;
30010;SDS011;16851;53.564;8.112;2022-11-20T15:10:30;19.40;;;14.33;;
30010;SDS011;16851;53.564;8.112;2022-11-20T15:15:46;24.27;;;16.50;;
30010;SDS011;16851;53.564;8.112;2022-11-20T15:20:51;22.57;;;17.07;;
30010;SDS011;16851;53.564;8.112;2022-11-20T15:25:54;26.73;;;20.43;;
30010;SDS011;16851;53.564;8.112;2022-11-20T15:31:01;32.07;;;20.70;;
30010;SDS011;16851;53.564;8.112;2022-11-20T15:36:04;32.80;;;22.17;;
30010;SDS011;16851;53.564;8.112;2022-11-20T15:41:08;37.80;;;25.37;;
30010;SDS011;16851;53.564;8.112;2022-11-20T15:46:15;30.03;;;22.67;;
30010;SDS011;16851;53.564;8.112;2022-11-20T15:51:24;32.13;;;24.20;;
30010;SDS011;16851;53.564;8.112;2022-11-20T15:56:33;30.87;;;21.50;;
30010;SDS011;16851;53.564;8.112;2022-11-20T16:01:37;29.63;;;20.27;;
30010;SDS011;16851;53.564;8.112;2022-11-20T16:06:39;29.77;;;20.50;;
30010;SDS011;16851;53.564;8.112;2022-11-20T16:11:48;36.37;;;23.47;;
30010;SDS011;16851;53.564;8.112;2022-11-20T16:16:49;42.20;;;26.80;;
30010;SDS011;16851;53.564;8.112;2022-11-20T16:21:57;50.20;;;31.37;;
30010;SDS011;16851;53.564;8.112;2022-11-20T16:27:03;54.47;;;34.00;;
30010;SDS011;16851;53.564;8.112;2022-11-20T16:32:07;37.40;;;25.70;;
30010;SDS011;16851;53.564;8.112;2022-11-20T16:37:11;37.20;;;25.80;;
30010;SDS011;16851;53.564;8.112;2022-11-20T16:42:15;36.13;;;24.97;;
30010;SDS011;16851;53.564;8.112;2022-11-20T16:47:17;40.73;;;27.33;;
30010;SDS011;16851;53.564;8.112;2022-11-20T16:52:21;45.53;;;29.43;;
30010;SDS011;16851;53.564;8.112;2022-11-20T16:57:24;52.43;;;31.37;;
30010;SDS011;16851;53.564;8.112;2022-11-20T17:02:28;51.27;;;30.73;;
30010;SDS011;16851;53.564;8.112;2022-11-20T17:07:32;51.23;;;30.50;;
30010;SDS011;16851;53.564;8.112;2022-11-20T17:12:41;67.00;;;40.43;;
30010;SDS011;16851;53.564;8.112;2022-11-20T17:17:53;40.23;;;27.90;;
30010;SDS011;16851;53.564;8.112;2022-11-20T17:22:58;34.23;;;25.23;;
30010;SDS011;16851;53.564;8.112;2022-11-20T17:28:03;32.33;;;22.90;;
30010;SDS011;16851;53.564;8.112;2022-11-20T17:33:07;40.13;;;25.53;;
30010;SDS011;16851;53.564;8.112;2022-11-20T17:38:11;36.00;;;25.00;;
30010;SDS011;16851;53.564;8.112;2022-11-20T17:43:15;40.57;;;26.33;;
30010;SDS011;16851;53.564;8.112;2022-11-20T17:48:18;37.23;;;25.73;;
30010;SDS011;16851;53.564;8.112;2022-11-20T17:53:20;35.10;;;24.40;;
30010;SDS011;16851;53.564;8.112;2022-11-20T17:58:26;36.93;;;26.10;;
30010;SDS011;16851;53.564;8.112;2022-11-20T18:03:33;57.10;;;33.20;;
30010;SDS011;16851;53.564;8.112;2022-11-20T18:08:34;45.70;;;29.67;;
30010;SDS011;16851;53.564;8.112;2022-11-20T18:13:42;53.47;;;35.90;;
30010;SDS011;16851;53.564;8.112;2022-11-20T18:19:05;45.77;;;31.03;;
30010;SDS011;16851;53.564;8.112;2022-11-20T18:24:10;52.60;;;33.23;;
30010;SDS011;16851;53.564;8.112;2022-11-20T18:29:15;53.83;;;34.20;;
30010;SDS011;16851;53.564;8.112;2022-11-20T18:34:19;62.20;;;38.57;;
30010;SDS011;16851;53.564;8.112;2022-11-20T18:39:22;68.87;;;41.10;;
30010;SDS011;16851;53.564;8.112;2022-11-20T18:44:28;79.07;;;43.47;;
30010;SDS011;16851;53.564;8.112;2022-11-20T18:49:52;62.53;;;37.40;;
30010;SDS011;16851;53.564;8.112;2022-11-20T18:54:55;53.30;;;32.57;;
30010;SDS011;16851;53.564;8.112;2022-11-20T19:00:01;42.53;;;25.93;;
30010;SDS011;16851;53.564;8.112;2022-11-20T19:05:25;45.40;;;27.63;;
30010;SDS011;16851;53.564;8.112;2022-11-20T19:10:28;34.97;;;23.03;;
30010;SDS011;16851;53.564;8.112;2022-11-20T19:15:32;29.77;;;20.37;;
30010;SDS011;16851;53.564;8.112;2022-11-20T19:20:34;27.13;;;19.50;;
30010;SDS011;16851;53.564;8.112;2022-11-20T19:25:38;28.10;;;19.17;;
30010;SDS011;16851;53.564;8.112;2022-11-20T19:30:43;42.30;;;23.07;;
30010;SDS011;16851;53.564;8.112;2022-11-20T19:35:46;50.00;;;25.37;;
30010;SDS011;16851;53.564;8.112;2022-11-20T19:40:48;46.67;;;22.83;;
30010;SDS011;16851;53.564;8.112;2022-11-20T19:45:50;141.67;;;46.40;;
30010;SDS011;16851;53.564;8.112;2022-11-20T19:50:52;41.97;;;22.13;;
30010;SDS011;16851;53.564;8.112;2022-11-20T19:56:06;68.50;;;28.37;;
30010;SDS011;16851;53.564;8.112;2022-11-20T20:01:12;44.97;;;24.23;;
30010;SDS011;16851;53.564;8.112;2022-11-20T20:06:18;35.00;;;21.37;;
30010;SDS011;16851;53.564;8.112;2022-11-20T20:11:22;47.97;;;30.87;;
30010;SDS011;16851;53.564;8.112;2022-11-20T20:16:25;39.87;;;23.30;;
30010;SDS011;16851;53.564;8.112;2022-11-20T20:21:31;32.13;;;21.63;;
30010;SDS011;16851;53.564;8.112;2022-11-20T20:26:36;27.27;;;20.03;;
30010;SDS011;16851;53.564;8.112;2022-11-20T20:31:46;50.07;;;27.87;;
30010;SDS011;16851;53.564;8.112;2022-11-20T20:36:48;42.37;;;24.53;;
30010;SDS011;16851;53.564;8.112;2022-11-20T20:41:49;37.80;;;23.57;;
30010;SDS011;16851;53.564;8.112;2022-11-20T20:46:53;32.93;;;21.77;;
30010;SDS011;16851;53.564;8.112;2022-11-20T20:51:55;41.93;;;25.53;;
30010;SDS011;16851;53.564;8.112;2022-11-20T20:56:57;40.80;;;24.83;;
30010;SDS011;16851;53.564;8.112;2022-11-20T21:02:01;38.97;;;23.10;;
30010;SDS011;16851;53.564;8.112;2022-11-20T21:07:03;33.93;;;21.70;;
30010;SDS011;16851;53.564;8.112;2022-11-20T21:12:09;90.23;;;22.20;;
30010;SDS011;16851;53.564;8.112;2022-11-20T21:17:13;30.93;;;20.90;;
30010;SDS011;16851;53.564;8.112;2022-11-20T21:22:16;26.87;;;19.40;;
30010;SDS011;16851;53.564;8.112;2022-11-20T21:27:18;27.77;;;19.53;;
30010;SDS011;16851;53.564;8.112;2022-11-20T21:32:22;37.10;;;23.27;;
30010;SDS011;16851;53.564;8.112;2022-11-20T21:37:26;36.07;;;22.67;;
30010;SDS011;16851;53.564;8.112;2022-11-20T21:42:30;36.07;;;23.17;;
30010;SDS011;16851;53.564;8.112;2022-11-20T21:47:35;33.23;;;22.67;;
30010;SDS011;16851;53.564;8.112;2022-11-20T21:52:44;31.00;;;20.90;;
30010;SDS011;16851;53.564;8.112;2022-11-20T21:57:49;29.60;;;21.17;;
30010;SDS011;16851;53.564;8.112;2022-11-20T22:02:54;32.47;;;21.60;;
30010;SDS011;16851;53.564;8.112;2022-11-20T22:07:56;35.07;;;23.37;;
30010;SDS011;16851;53.564;8.112;2022-11-20T22:13:01;35.73;;;23.73;;
30010;SDS011;16851;53.564;8.112;2022-11-20T22:18:22;35.00;;;23.37;;
30010;SDS011;16851;53.564;8.112;2022-11-20T22:23:28;38.23;;;23.50;;
30010;SDS011;16851;53.564;8.112;2022-11-20T22:28:35;35.23;;;23.57;;
30010;SDS011;16851;53.564;8.112;2022-11-20T22:33:38;39.27;;;25.97;;
30010;SDS011;16851;53.564;8.112;2022-11-20T22:38:42;38.93;;;24.83;;
30010;SDS011;16851;53.564;8.112;2022-11-20T22:43:47;35.47;;;22.97;;
30010;SDS011;16851;53.564;8.112;2022-11-20T22:48:55;34.90;;;22.40;;
30010;SDS011;16851;53.564;8.112;2022-11-20T22:53:58;32.53;;;22.47;;
30010;SDS011;16851;53.564;8.112;2022-11-20T22:59:02;34.63;;;22.17;;
30010;SDS011;16851;53.564;8.112;2022-11-20T23:04:05;33.33;;;22.40;;
30010;SDS011;16851;53.564;8.112;2022-11-20T23:09:10;36.20;;;23.93;;
30010;SDS011;16851;53.564;8.112;2022-11-20T23:14:13;34.80;;;23.17;;
30010;SDS011;16851;53.564;8.112;2022-11-20T23:19:17;35.33;;;23.37;;
30010;SDS011;16851;53.564;8.112;2022-11-20T23:24:21;30.47;;;21.30;;
30010;SDS011;16851;53.564;8.112;2022-11-20T23:29:25;28.97;;;20.73;;
30010;SDS011;16851;53.564;8.112;2022-11-20T23:34:30;32.33;;;20.93;;
30010;SDS011;16851;53.564;8.112;2022-11-20T23:39:32;33.53;;;22.23;;
30010;SDS011;16851;53.564;8.112;2022-11-20T23:44:33;35.23;;;23.60;;
30010;SDS011;16851;53.564;8.112;2022-11-20T23:49:37;28.47;;;19.80;;
30010;SDS011;16851;53.564;8.112;2022-11-20T23:54:39;32.37;;;20.50;;
30010;SDS011;16851;53.564;8.112;2022-11-20T23:59:47;27.50;;;19.63;;
